createdAt,value
2023-03-29T00:04:36.769Z,1.57
2023-03-29T00:07:42.815Z,1.90
2023-03-29T00:10:50.112Z,1.80
2023-03-29T00:14:04.788Z,1.97
2023-03-29T00:17:09.214Z,2.67
2023-03-29T00:20:15.072Z,2.50
2023-03-29T00:23:19.896Z,1.87
2023-03-29T00:26:25.237Z,1.90
2023-03-29T00:34:00.215Z,1.80
2023-03-29T00:37:09.241Z,1.70
2023-03-29T00:40:15.864Z,1.87
2023-03-29T00:43:20.655Z,2.10
2023-03-29T00:50:36.680Z,2.00
2023-03-29T00:53:49.700Z,1.90
2023-03-29T00:56:55.937Z,1.95
2023-03-29T01:00:05.633Z,2.20
2023-03-29T01:03:25.477Z,2.28
2023-03-29T01:06:34.662Z,2.40
2023-03-29T01:09:44.193Z,2.05
2023-03-29T01:12:57.557Z,1.95
2023-03-29T01:20:46.644Z,2.00
2023-03-29T01:24:19.759Z,2.30
2023-03-29T01:27:50.780Z,2.10
2023-03-29T01:31:04.420Z,2.30
2023-03-29T01:34:26.380Z,2.17
2023-03-29T01:37:34.478Z,2.03
2023-03-29T01:40:38.777Z,2.72
2023-03-29T01:43:59.505Z,2.28
2023-03-29T01:51:36.621Z,2.70
2023-03-29T01:54:56.616Z,2.55
2023-03-29T01:58:03.492Z,2.17
2023-03-29T02:01:10.909Z,1.92
2023-03-29T02:04:21.065Z,2.22
2023-03-29T02:07:31.001Z,1.97
2023-03-29T02:10:37.175Z,1.70
2023-03-29T02:13:42.408Z,2.12
2023-03-29T02:21:09.495Z,1.87
2023-03-29T02:24:19.141Z,2.33
2023-03-29T02:27:23.877Z,2.05
2023-03-29T02:30:34.445Z,2.43
2023-03-29T02:33:48.192Z,2.60
2023-03-29T02:37:02.452Z,2.60
2023-03-29T02:40:08.409Z,2.43
2023-03-29T02:43:17.027Z,2.28
2023-03-29T02:46:22.411Z,2.75
2023-03-29T02:49:27.417Z,2.60
2023-03-29T02:52:37.576Z,2.17
2023-03-29T02:55:42.318Z,2.60
2023-03-29T02:58:46.529Z,2.97
2023-03-29T03:06:12.712Z,3.53
2023-03-29T03:09:18.580Z,3.53
2023-03-29T03:12:23.504Z,3.53
2023-03-29T03:15:29.044Z,2.92
2023-03-29T03:18:34.293Z,2.67
2023-03-29T03:21:39.638Z,2.83
2023-03-29T03:24:43.853Z,2.92
2023-03-29T03:27:50.124Z,3.10
2023-03-29T03:30:55.066Z,2.80
2023-03-29T03:38:31.774Z,2.28
2023-03-29T03:41:38.143Z,2.47
2023-03-29T03:44:42.468Z,2.70
2023-03-29T03:47:48.867Z,3.03
2023-03-29T03:51:00.261Z,3.00
2023-03-29T03:54:09.258Z,2.83
2023-03-29T03:57:16.990Z,2.58
2023-03-29T04:00:23.747Z,2.53
2023-03-29T04:07:57.064Z,2.70
2023-03-29T04:11:03.250Z,2.45
2023-03-29T04:14:11.959Z,3.47
2023-03-29T04:17:17.821Z,3.20
2023-03-29T04:20:25.319Z,3.65
2023-03-29T04:23:38.345Z,4.03
2023-03-29T04:26:49.422Z,4.07
2023-03-29T04:29:55.286Z,3.47
2023-03-29T04:40:32.029Z,2.90
2023-03-29T04:43:48.026Z,2.97
2023-03-29T04:46:53.618Z,2.62
2023-03-29T04:50:01.076Z,3.30
2023-03-29T04:53:07.948Z,3.22
2023-03-29T04:56:13.917Z,3.45
2023-03-29T04:59:19.978Z,3.92
2023-03-29T05:02:38.062Z,4.30
2023-03-29T05:10:11.465Z,3.87
2023-03-29T05:13:21.106Z,4.23
2023-03-29T05:16:26.780Z,4.45
2023-03-29T05:19:33.009Z,4.50
2023-03-29T05:22:42.064Z,4.28
2023-03-29T05:25:50.785Z,3.97
2023-03-29T05:28:57.968Z,4.50
2023-03-29T05:32:03.311Z,4.97
2023-03-29T05:39:38.082Z,5.30
2023-03-29T05:42:44.364Z,5.62
2023-03-29T05:45:49.563Z,4.80
2023-03-29T05:48:58.130Z,4.40
2023-03-29T05:56:18.238Z,4.25
2023-03-29T05:59:24.916Z,4.25
2023-03-29T06:02:33.903Z,3.90
2023-03-29T06:05:40.836Z,4.18
2023-03-29T06:08:50.184Z,4.35
2023-03-29T06:12:09.554Z,3.77
2023-03-29T06:15:19.415Z,4.20
2023-03-29T06:18:29.154Z,4.40
2023-03-29T06:25:58.497Z,4.17
2023-03-29T06:29:04.769Z,3.80
2023-03-29T06:32:12.051Z,3.12
2023-03-29T06:35:25.705Z,3.95
2023-03-29T06:42:49.509Z,3.42
2023-03-29T06:45:58.884Z,3.62
2023-03-29T06:49:08.292Z,3.80
2023-03-29T06:52:14.966Z,3.50
2023-03-29T06:55:29.022Z,3.83
2023-03-29T06:58:36.424Z,3.97
2023-03-29T07:01:44.332Z,5.32
2023-03-29T07:04:52.948Z,4.55
2023-03-29T07:12:23.132Z,2.30
2023-03-29T07:15:35.002Z,2.50
2023-03-29T07:18:43.875Z,2.83
2023-03-29T07:26:28.815Z,3.22
2023-03-29T07:29:42.787Z,3.37
2023-03-29T07:32:47.160Z,3.75
2023-03-29T07:35:59.573Z,2.87
2023-03-29T07:43:35.197Z,2.60
2023-03-29T07:46:40.550Z,2.00
2023-03-29T07:49:47.330Z,2.15
2023-03-29T07:52:57.289Z,1.80
2023-03-29T07:56:11.127Z,2.45
2023-03-29T07:59:17.904Z,2.80
2023-03-29T08:02:24.217Z,2.30
2023-03-29T08:05:40.749Z,2.22
2023-03-29T08:13:11.052Z,1.20
2023-03-29T08:16:23.630Z,1.50
2023-03-29T08:19:36.290Z,1.30
2023-03-29T08:22:45.131Z,1.87
2023-03-29T08:25:52.589Z,1.62
2023-03-29T08:28:57.752Z,1.60
2023-03-29T08:32:09.960Z,1.50
2023-03-29T08:35:18.301Z,1.23
2023-03-29T08:43:23.365Z,1.50
2023-03-29T08:46:44.704Z,1.65
2023-03-29T08:49:57.401Z,1.60
2023-03-29T08:53:11.041Z,1.60
2023-03-29T08:56:26.010Z,1.50
2023-03-29T08:59:35.048Z,1.40
2023-03-29T09:02:42.620Z,1.55
2023-03-29T09:06:13.395Z,4.03
2023-03-29T09:09:23.438Z,19.50
2023-03-29T09:13:15.199Z,3.62
2023-03-29T09:16:36.727Z,1.90
2023-03-29T09:20:04.197Z,1.27
2023-03-29T09:23:32.767Z,1.58
2023-03-29T09:27:06.267Z,1.50
2023-03-29T09:30:27.265Z,1.70
2023-03-29T09:33:55.567Z,1.92
2023-03-29T09:37:21.798Z,1.70
2023-03-29T09:40:42.113Z,1.80
2023-03-29T09:43:51.676Z,2.10
2023-03-29T09:47:04.961Z,1.87
2023-03-29T09:50:31.368Z,1.58
2023-03-29T09:53:36.604Z,1.70
2023-03-29T09:56:45.009Z,1.85
2023-03-29T09:59:51.987Z,1.43
2023-03-29T10:02:57.952Z,2.35
2023-03-29T10:06:05.331Z,1.40
2023-03-29T10:09:20.056Z,1.77
2023-03-29T10:12:25.243Z,5.45
2023-03-29T10:15:30.926Z,17.40
2023-03-29T10:18:44.063Z,3.62
2023-03-29T10:21:50.151Z,3.05
2023-03-29T10:24:58.901Z,2.33
2023-03-29T10:28:12.289Z,2.97
2023-03-29T10:31:21.399Z,2.50
2023-03-29T10:34:29.992Z,2.17
2023-03-29T10:37:36.011Z,1.90
2023-03-29T10:40:47.802Z,1.92
2023-03-29T10:43:53.877Z,1.95
2023-03-29T10:47:07.041Z,1.93
2023-03-29T10:50:18.750Z,1.90
2023-03-29T10:53:29.795Z,2.60
2023-03-29T10:56:37.268Z,2.70
2023-03-29T11:00:05.773Z,2.47
2023-03-29T11:03:28.240Z,2.50
2023-03-29T11:06:41.299Z,2.40
2023-03-29T11:09:58.857Z,2.25
2023-03-29T11:13:34.728Z,2.53
2023-03-29T11:17:13.920Z,2.03
2023-03-29T11:21:11.013Z,2.23
2023-03-29T11:24:51.528Z,2.10
2023-03-29T11:28:13.331Z,2.80
2023-03-29T11:31:38.875Z,2.37
2023-03-29T11:34:55.809Z,2.70
2023-03-29T11:38:13.830Z,2.50
2023-03-29T11:41:18.993Z,3.22
2023-03-29T11:44:22.364Z,2.50
2023-03-29T11:47:37.436Z,2.62
2023-03-29T11:51:02.019Z,2.55
2023-03-29T11:54:28.784Z,2.37
2023-03-29T11:57:52.704Z,2.40
2023-03-29T12:01:18.950Z,2.85
2023-03-29T12:04:41.394Z,2.60
2023-03-29T12:07:59.004Z,2.20
2023-03-29T12:11:14.691Z,2.60
2023-03-29T12:14:32.003Z,2.35
2023-03-29T12:17:46.166Z,2.65
2023-03-29T12:20:57.713Z,2.58
2023-03-29T12:24:02.489Z,2.50
2023-03-29T12:27:29.950Z,2.60
2023-03-29T12:30:36.892Z,2.58
2023-03-29T12:34:03.846Z,2.55
2023-03-29T12:37:24.972Z,2.20
2023-03-29T12:40:45.768Z,2.53
2023-03-29T12:44:04.796Z,2.20
2023-03-29T12:47:22.301Z,2.50
2023-03-29T12:50:36.147Z,2.47
2023-03-29T12:53:45.805Z,2.42
2023-03-29T12:57:21.298Z,2.70
2023-03-29T13:00:34.390Z,2.77
2023-03-29T13:03:40.746Z,2.58
2023-03-29T13:06:51.707Z,2.62
2023-03-29T13:09:59.428Z,2.70
2023-03-29T13:13:15.829Z,2.60
2023-03-29T13:16:31.400Z,2.40
2023-03-29T13:19:47.716Z,2.53
2023-03-29T13:23:18.352Z,2.60
2023-03-29T13:26:57.782Z,2.37
2023-03-29T13:30:31.394Z,2.75
2023-03-29T13:33:53.328Z,2.20
2023-03-29T13:37:40.717Z,2.53
2023-03-29T13:40:54.945Z,2.67
2023-03-29T13:44:02.870Z,2.47
2023-03-29T13:47:22.729Z,2.70
2023-03-29T13:50:42.902Z,2.63
2023-03-29T13:53:50.252Z,2.70
2023-03-29T13:57:24.877Z,2.15
2023-03-29T14:00:53.664Z,2.50
2023-03-29T14:04:06.584Z,2.50
2023-03-29T14:07:26.545Z,2.30
2023-03-29T14:10:44.704Z,2.00
2023-03-29T14:14:06.957Z,2.30
2023-03-29T14:17:26.976Z,2.42
2023-03-29T14:20:33.132Z,3.10
2023-03-29T14:23:42.150Z,2.97
2023-03-29T14:26:49.828Z,2.65
2023-03-29T14:29:55.571Z,2.72
2023-03-29T14:33:09.128Z,2.70
2023-03-29T14:36:18.775Z,2.80
2023-03-29T14:39:25.077Z,2.83
2023-03-29T14:42:37.049Z,2.42
2023-03-29T14:45:54.692Z,6.50
2023-03-29T14:48:59.259Z,3.83
2023-03-29T14:52:15.796Z,3.17
2023-03-29T14:55:28.707Z,2.57
2023-03-29T14:58:50.011Z,2.55
2023-03-29T15:02:00.130Z,3.58
2023-03-29T15:05:26.763Z,3.47
2023-03-29T15:09:03.748Z,2.83
2023-03-29T15:12:22.856Z,4.60
2023-03-29T15:15:28.956Z,4.80
2023-03-29T15:18:40.190Z,4.20
2023-03-29T15:22:02.235Z,9.38
2023-03-29T15:25:18.776Z,5.70
2023-03-29T15:28:31.800Z,3.47
2023-03-29T15:31:39.736Z,3.20
2023-03-29T15:35:02.700Z,6.60
2023-03-29T15:38:07.000Z,9.75
2023-03-29T15:41:20.657Z,7.57
2023-03-29T15:44:39.028Z,10.23
2023-03-29T15:47:54.642Z,8.93
2023-03-29T15:51:06.098Z,8.07
2023-03-29T15:54:20.630Z,18.58
2023-03-29T15:57:26.711Z,14.05
2023-03-29T16:00:33.884Z,17.63
2023-03-29T16:03:47.650Z,9.32
2023-03-29T16:06:57.882Z,5.68
2023-03-29T16:10:03.869Z,4.60
2023-03-29T16:13:14.756Z,3.20
2023-03-29T16:16:31.636Z,3.03
2023-03-29T16:19:35.152Z,3.15
2023-03-29T16:22:55.339Z,3.58
2023-03-29T16:26:06.653Z,2.92
2023-03-29T16:29:14.775Z,4.15
2023-03-29T16:32:18.150Z,3.40
2023-03-29T16:35:33.781Z,3.92
2023-03-29T16:38:56.603Z,8.02
2023-03-29T16:42:14.617Z,7.75
2023-03-29T16:45:27.413Z,4.60
2023-03-29T16:48:51.643Z,3.80
2023-03-29T16:51:56.537Z,2.83
2023-03-29T16:55:27.617Z,2.90
2023-03-29T16:58:43.666Z,4.18
2023-03-29T17:01:58.732Z,5.03
2023-03-29T17:05:04.234Z,2.50
2023-03-29T17:08:18.751Z,2.65
2023-03-29T17:11:36.844Z,3.22
2023-03-29T17:14:56.639Z,2.90
2023-03-29T17:18:02.732Z,3.12
2023-03-29T17:21:14.193Z,2.73
2023-03-29T17:24:26.720Z,3.20
2023-03-29T17:27:30.690Z,2.90
2023-03-29T17:30:42.793Z,3.42
2023-03-29T17:34:03.691Z,3.92
2023-03-29T17:37:24.008Z,4.73
2023-03-29T17:40:31.685Z,4.43
2023-03-29T17:43:58.591Z,4.40
2023-03-29T17:47:20.627Z,4.28
2023-03-29T17:50:32.726Z,4.60
2023-03-29T17:53:52.714Z,4.20
2023-03-29T17:57:05.139Z,4.15
2023-03-29T18:00:17.974Z,4.50
2023-03-29T18:03:36.620Z,4.55
2023-03-29T18:06:50.739Z,4.00
2023-03-29T18:10:20.658Z,4.37
2023-03-29T18:13:30.201Z,4.10
2023-03-29T18:16:38.344Z,4.47
2023-03-29T18:19:41.936Z,4.80
2023-03-29T18:22:51.712Z,5.10
2023-03-29T18:26:03.225Z,4.90
2023-03-29T18:29:10.898Z,3.60
2023-03-29T18:32:21.147Z,3.40
2023-03-29T18:35:44.681Z,6.40
2023-03-29T18:38:59.878Z,8.05
2023-03-29T18:42:10.821Z,7.30
2023-03-29T18:45:23.745Z,5.40
2023-03-29T18:48:35.726Z,5.18
2023-03-29T18:51:59.712Z,4.55
2023-03-29T18:55:12.790Z,4.80
2023-03-29T18:58:24.098Z,4.90
2023-03-29T19:01:27.694Z,4.12
2023-03-29T19:04:34.747Z,5.10
2023-03-29T19:07:44.335Z,7.03
2023-03-29T19:10:49.728Z,6.37
2023-03-29T19:13:58.716Z,5.33
2023-03-29T19:17:21.797Z,4.93
2023-03-29T19:20:32.273Z,5.82
2023-03-29T19:23:42.473Z,5.22
2023-03-29T19:26:59.714Z,5.50
2023-03-29T19:30:11.645Z,6.67
2023-03-29T19:33:28.603Z,6.32
2023-03-29T19:36:31.980Z,6.40
2023-03-29T19:39:41.924Z,5.90
2023-03-29T19:42:51.937Z,6.07
2023-03-29T19:45:57.432Z,6.03
2023-03-29T19:49:13.741Z,6.65
2023-03-29T19:52:24.078Z,7.30
2023-03-29T19:55:31.701Z,6.55
2023-03-29T19:58:50.576Z,6.72
2023-03-29T20:02:04.917Z,5.87
2023-03-29T20:05:10.875Z,5.87
2023-03-29T20:08:21.745Z,6.47
2023-03-29T20:11:29.725Z,5.35
2023-03-29T20:14:49.561Z,5.60
2023-03-29T20:17:59.423Z,6.23
2023-03-29T20:21:04.964Z,6.20
2023-03-29T20:24:12.800Z,6.43
2023-03-29T20:27:25.651Z,6.15
2023-03-29T20:30:29.610Z,6.35
2023-03-29T20:33:36.150Z,5.13
2023-03-29T20:36:41.217Z,5.60
2023-03-29T20:39:45.268Z,5.72
2023-03-29T20:42:49.074Z,5.90
2023-03-29T20:45:53.843Z,5.90
2023-03-29T20:49:09.745Z,6.90
2023-03-29T20:52:17.697Z,7.25
2023-03-29T20:55:24.562Z,6.55
2023-03-29T20:58:34.827Z,5.85
2023-03-29T21:01:44.745Z,6.37
2023-03-29T21:04:53.928Z,5.87
2023-03-29T21:07:58.372Z,7.62
2023-03-29T21:11:03.345Z,5.87
2023-03-29T21:14:15.630Z,5.22
2023-03-29T21:17:20.120Z,6.12
2023-03-29T21:20:25.140Z,5.40
2023-03-29T21:23:28.582Z,5.72
2023-03-29T21:26:32.236Z,5.22
2023-03-29T21:29:39.818Z,5.47
2023-03-29T21:32:43.242Z,5.70
2023-03-29T21:35:50.478Z,5.30
2023-03-29T21:38:55.735Z,5.07
2023-03-29T21:42:02.270Z,5.82
2023-03-29T21:45:10.967Z,5.65
2023-03-29T21:48:14.394Z,6.28
2023-03-29T21:51:23.873Z,6.47
2023-03-29T21:54:27.695Z,7.18
2023-03-29T21:57:31.674Z,7.35
2023-03-29T22:00:34.775Z,6.95
2023-03-29T22:03:39.255Z,7.10
2023-03-29T22:06:43.088Z,7.23
2023-03-29T22:09:55.083Z,7.32
2023-03-29T22:12:58.234Z,7.47
2023-03-29T22:16:04.039Z,7.35
2023-03-29T22:19:09.753Z,7.93
2023-03-29T22:22:14.926Z,7.97
2023-03-29T22:25:24.467Z,7.70
2023-03-29T22:28:27.493Z,7.75
2023-03-29T22:31:31.941Z,7.45
2023-03-29T22:34:36.382Z,7.57
2023-03-29T22:37:42.590Z,7.10
2023-03-29T22:40:47.452Z,6.85
2023-03-29T22:43:55.389Z,7.03
2023-03-29T22:46:59.146Z,6.68
2023-03-29T22:50:02.328Z,6.75
2023-03-29T22:53:05.380Z,6.20
2023-03-29T22:56:09.297Z,6.35
2023-03-29T22:59:13.796Z,6.82
2023-03-29T23:02:17.339Z,6.97
2023-03-29T23:05:20.106Z,6.37
2023-03-29T23:08:24.396Z,6.10
2023-03-29T23:11:27.705Z,6.37
2023-03-29T23:14:31.249Z,6.22
2023-03-29T23:17:35.070Z,5.95
2023-03-29T23:20:37.864Z,6.65
2023-03-29T23:23:41.785Z,6.90
2023-03-29T23:26:44.437Z,5.20
2023-03-29T23:29:47.941Z,5.80
2023-03-29T23:32:52.563Z,6.00
2023-03-29T23:35:55.543Z,6.15
2023-03-29T23:38:59.639Z,5.57
2023-03-29T23:42:03.685Z,5.68
2023-03-29T23:45:08.832Z,6.45
2023-03-29T23:48:11.594Z,5.55
2023-03-29T23:51:18.193Z,5.97
2023-03-29T23:54:21.334Z,5.07
2023-03-29T23:57:24.199Z,5.10
